Time;durP1;ratioP1;P1;durP2;ratioP2;P2;SDS_P1;SDS_P2;PMS_P1;PMS_P2;Temp;Humidity;BMP_temperature;BMP_pressure;BME280_temperature;BME280_humidity;BME280_pressure;Samples;Min_cycle;Max_cycle;Signal;HPM_P1;HPM_P2
2023/08/13 00:00:07;;;;;;;5.37;4.00;;;;;;;19.48;87.08;101056.28;5029269;28;20693;-71
2023/08/13 00:02:34;;;;;;;4.83;3.67;;;;;;;19.51;87.69;101056.28;5033470;28;20234;-71
2023/08/13 00:05:02;;;;;;;4.93;3.40;;;;;;;19.52;86.49;101060.53;5032011;28;20207;-71
2023/08/13 00:07:29;;;;;;;5.93;3.70;;;;;;;19.53;86.48;101062.06;5032843;28;20216;-71
2023/08/13 00:09:55;;;;;;;3.80;3.43;;;;;;;19.55;86.13;101065.13;5032567;28;20759;-71
2023/08/13 00:12:22;;;;;;;6.20;3.40;;;;;;;19.56;86.71;101061.28;5033592;28;20207;-71
2023/08/13 00:14:49;;;;;;;4.70;3.27;;;;;;;19.56;87.10;101063.97;5035460;28;20257;-71
2023/08/13 00:17:15;;;;;;;3.50;3.17;;;;;;;19.55;86.84;101061.69;5033341;28;20651;-71
2023/08/13 00:19:42;;;;;;;4.00;3.33;;;;;;;19.56;86.40;101071.25;5029732;28;20234;-71
2023/08/13 00:22:08;;;;;;;5.70;3.40;;;;;;;19.55;86.27;101069.72;5030749;28;20219;-71
2023/08/13 00:24:35;;;;;;;3.50;3.10;;;;;;;19.55;85.98;101080.44;5031536;28;20249;-71
2023/08/13 00:27:01;;;;;;;4.10;3.20;;;;;;;19.53;86.13;101077.34;5030208;28;20211;-71
2023/08/13 00:29:28;;;;;;;4.43;3.37;;;;;;;19.51;86.31;101079.66;5032690;28;20289;-71
2023/08/13 00:31:56;;;;;;;5.57;3.10;;;;;;;19.50;85.69;101072.75;5028614;28;20233;-71
2023/08/13 00:34:22;;;;;;;6.13;3.47;;;;;;;19.46;86.69;101072.72;5029807;28;20577;-71
2023/08/13 00:36:49;;;;;;;6.40;3.77;;;;;;;19.46;86.44;101074.63;5032195;28;20198;-71
2023/08/13 00:39:15;;;;;;;4.23;3.50;;;;;;;19.43;86.13;101078.84;5044397;28;20485;-71
2023/08/13 00:41:42;;;;;;;4.37;3.30;;;;;;;19.42;86.48;101079.97;5034166;28;20218;-71
2023/08/13 00:44:08;;;;;;;4.97;3.50;;;;;;;19.41;86.46;101089.13;5032464;28;20297;-71
2023/08/13 00:46:34;;;;;;;5.03;3.40;;;;;;;19.40;86.36;101078.81;5025627;28;20630;-71
2023/08/13 00:49:02;;;;;;;3.87;3.47;;;;;;;19.37;85.88;101085.69;5029655;28;20196;-71
2023/08/13 00:51:30;;;;;;;4.13;3.50;;;;;;;19.37;85.76;101087.56;5029643;28;20208;-71
2023/08/13 00:53:56;;;;;;;4.77;3.60;;;;;;;19.35;85.98;101085.25;5029364;28;20211;-71
2023/08/13 00:56:24;;;;;;;4.80;3.37;;;;;;;19.34;86.08;101097.13;5030773;28;20215;-71
2023/08/13 00:58:51;;;;;;;3.80;3.40;;;;;;;19.33;85.85;101100.16;5026851;28;20241;-71
2023/08/13 01:01:17;;;;;;;4.47;3.60;;;;;;;19.31;85.75;101102.47;5030997;28;20208;-70
2023/08/13 01:03:43;;;;;;;6.43;3.47;;;;;;;19.29;85.57;101110.06;5036878;28;20211;-71
2023/08/13 01:06:16;;;;;;;5.17;3.10;;;;;;;19.26;85.20;101098.22;5031247;28;20666;-71
2023/08/13 01:08:56;;;;;;;4.63;3.03;;;;;;;19.24;85.73;101105.84;5035786;28;20199;-71
2023/08/13 01:11:30;;;;;;;4.33;3.50;;;;;;;19.22;85.36;101110.81;5032364;28;20198;-71
2023/08/13 01:14:04;;;;;;;3.50;3.13;;;;;;;19.20;85.48;101099.66;5032598;28;20326;-71
2023/08/13 01:16:33;;;;;;;4.10;3.60;;;;;;;19.17;85.50;101104.97;5033277;28;20673;-71
2023/08/13 01:19:00;;;;;;;3.50;3.20;;;;;;;19.13;85.52;101104.94;5035508;28;20327;-71
2023/08/13 01:21:27;;;;;;;5.50;3.50;;;;;;;19.10;85.40;101108.34;5049860;28;20230;-71
2023/08/13 01:23:56;;;;;;;8.20;3.40;;;;;;;19.06;84.92;101120.19;5037884;28;20560;-71
2023/08/13 01:26:27;;;;;;;4.73;3.20;;;;;;;19.02;85.30;101127.41;5052171;28;20348;-71
2023/08/13 01:29:00;;;;;;;5.47;3.37;;;;;;;18.98;85.14;101132.72;5032604;28;20211;-71
2023/08/13 01:31:29;;;;;;;4.30;3.67;;;;;;;18.95;85.27;101144.19;5030436;28;20204;-71
2023/08/13 01:33:59;;;;;;;4.87;3.70;;;;;;;18.94;85.08;101134.59;5028925;28;20213;-71
2023/08/13 01:36:26;;;;;;;4.90;3.60;;;;;;;18.93;85.60;101138.41;5029695;28;20211;-71
2023/08/13 01:38:53;;;;;;;7.03;3.80;;;;;;;18.93;85.51;101146.44;5029586;28;20222;-71
2023/08/13 01:41:21;;;;;;;4.27;3.50;;;;;;;18.93;85.65;101148.38;5036570;28;20215;-71
2023/08/13 01:43:48;;;;;;;4.50;3.53;;;;;;;18.91;85.70;101138.03;5022047;28;20573;-71
2023/08/13 01:46:14;;;;;;;4.73;3.70;;;;;;;18.89;85.68;101145.63;5028999;28;20636;-71
2023/08/13 01:48:40;;;;;;;5.27;4.33;;;;;;;18.88;85.92;101138.00;5030790;28;20311;-71
2023/08/13 01:51:07;;;;;;;4.03;3.63;;;;;;;18.85;85.97;101142.16;5029279;28;20226;-71
2023/08/13 01:53:33;;;;;;;6.60;4.03;;;;;;;18.83;85.62;101143.69;5032719;28;20210;-71
2023/08/13 01:55:59;;;;;;;6.10;3.77;;;;;;;18.80;85.55;101141.72;5029923;28;20677;-70
2023/08/13 01:58:27;;;;;;;5.70;4.10;;;;;;;18.77;85.75;101153.16;5031478;28;21029;-70
2023/08/13 02:00:53;;;;;;;4.70;4.20;;;;;;;18.73;85.86;101139.72;5046562;28;20215;-71
2023/08/13 02:03:20;;;;;;;4.40;3.70;;;;;;;18.71;85.58;101142.00;5035482;28;20215;-71
2023/08/13 02:05:46;;;;;;;5.47;4.57;;;;;;;18.69;85.60;101149.63;5031719;28;20589;-70
2023/08/13 02:08:13;;;;;;;4.47;3.87;;;;;;;18.67;85.55;101151.16;5032974;28;20204;-71
2023/08/13 02:10:39;;;;;;;5.03;4.10;;;;;;;18.64;85.73;101155.31;5029794;28;20368;-71
2023/08/13 02:13:05;;;;;;;4.70;3.63;;;;;;;18.63;85.52;101155.69;5032764;28;20212;-71
2023/08/13 02:15:33;;;;;;;11.07;3.70;;;;;;;18.62;85.55;101152.22;5033921;28;20211;-71
2023/08/13 02:18:00;;;;;;;4.67;4.17;;;;;;;18.61;85.71;101149.91;5032188;28;20591;-71
2023/08/13 02:20:26;;;;;;;6.17;4.27;;;;;;;18.60;85.71;101148.38;5034573;28;20590;-71
2023/08/13 02:22:52;;;;;;;4.30;3.90;;;;;;;18.59;85.57;101147.63;5032947;28;20590;-71
2023/08/13 02:25:19;;;;;;;4.90;4.03;;;;;;;18.58;85.64;101150.66;5049480;28;20205;-71
2023/08/13 02:27:45;;;;;;;4.83;3.73;;;;;;;18.57;85.48;101159.81;5034211;28;20302;-71
2023/08/13 02:30:12;;;;;;;5.33;3.93;;;;;;;18.55;85.41;101159.41;5033871;28;20258;-71
2023/08/13 02:32:41;;;;;;;6.23;3.60;;;;;;;18.53;85.09;101159.00;5029033;28;20204;-71
2023/08/13 02:35:09;;;;;;;4.40;3.87;;;;;;;18.51;85.05;101163.94;5028358;28;20207;-71
2023/08/13 02:37:35;;;;;;;4.50;4.03;;;;;;;18.47;85.21;101158.53;5035415;28;20265;-71
2023/08/13 02:40:02;;;;;;;5.23;4.17;;;;;;;18.47;84.93;101163.13;5032059;28;20242;-71
2023/08/13 02:42:28;;;;;;;4.83;3.90;;;;;;;18.45;84.92;101165.38;5030392;28;20238;-71
2023/08/13 02:44:54;;;;;;;3.93;3.57;;;;;;;18.42;84.99;101166.88;5030897;28;20215;-71
2023/08/13 02:47:21;;;;;;;4.70;4.20;;;;;;;18.41;85.00;101180.59;5045762;28;20207;-71
2023/08/13 02:49:48;;;;;;;7.70;4.33;;;;;;;18.40;85.25;101179.84;5028979;28;20602;-71
2023/08/13 02:52:16;;;;;;;5.10;4.20;;;;;;;18.39;84.81;101172.97;5032973;28;20195;-71
2023/08/13 02:54:42;;;;;;;5.13;4.00;;;;;;;18.40;85.29;101173.72;5032178;28;20219;-71
2023/08/13 02:57:08;;;;;;;4.80;4.30;;;;;;;18.40;85.85;101179.84;5034142;28;20720;-70
2023/08/13 02:59:35;;;;;;;4.93;4.43;;;;;;;18.40;85.93;101184.41;5028553;28;20689;-71
2023/08/13 03:02:01;;;;;;;6.07;4.30;;;;;;;18.39;85.32;101186.34;5047661;28;20226;-71
2023/08/13 03:04:28;;;;;;;5.23;4.30;;;;;;;18.39;85.78;101190.91;5029678;28;20199;-71
2023/08/13 03:06:55;;;;;;;5.27;4.30;;;;;;;18.38;85.67;101187.44;5031319;28;20443;-71
2023/08/13 03:09:23;;;;;;;4.57;4.10;;;;;;;18.37;85.62;101190.50;5032558;28;20677;-71
2023/08/13 03:11:50;;;;;;;6.07;4.87;;;;;;;18.36;85.62;101189.72;5028027;28;20273;-71
2023/08/13 03:14:17;;;;;;;6.83;4.40;;;;;;;18.37;85.44;101198.53;5032299;28;20205;-71
2023/08/13 03:16:44;;;;;;;4.83;4.40;;;;;;;18.37;85.70;101190.50;5028531;28;20212;-71
2023/08/13 03:19:10;;;;;;;5.73;4.70;;;;;;;18.38;85.76;101192.03;5027941;28;20578;-71
2023/08/13 03:21:36;;;;;;;6.87;4.90;;;;;;;18.36;86.03;101191.66;5035252;28;20240;-70
2023/08/13 03:24:05;;;;;;;5.40;4.90;;;;;;;18.37;85.99;101187.84;5031651;28;20218;-70
2023/08/13 03:26:32;;;;;;;6.60;4.87;;;;;;;18.38;85.94;101189.38;5029024;28;20688;-70
2023/08/13 03:28:58;;;;;;;6.20;4.30;;;;;;;18.39;85.99;101194.38;5029222;28;20211;-70
2023/08/13 03:31:25;;;;;;;5.73;4.73;;;;;;;18.40;85.99;101195.13;5030390;28;20214;-70
2023/08/13 03:33:58;;;;;;;5.63;5.00;;;;;;;18.41;86.02;101194.75;5023846;28;20582;-70
2023/08/13 03:36:26;;;;;;;5.27;4.50;;;;;;;18.43;85.92;101195.16;5032299;28;20790;-70
2023/08/13 03:38:52;;;;;;;6.87;4.30;;;;;;;18.46;85.95;101197.13;5043818;28;20701;-70
2023/08/13 03:41:20;;;;;;;6.63;4.50;;;;;;;18.48;85.72;101194.84;5033462;28;20669;-71
2023/08/13 03:43:46;;;;;;;4.67;4.27;;;;;;;18.51;85.99;101201.38;5030038;28;20380;-70
2023/08/13 03:46:13;;;;;;;5.73;4.70;;;;;;;18.52;85.96;101202.94;5029068;28;20294;-70
2023/08/13 03:48:39;;;;;;;5.20;4.70;;;;;;;18.52;85.58;101200.25;5025929;28;20217;-70
2023/08/13 03:51:05;;;;;;;5.57;4.93;;;;;;;18.55;85.82;101202.19;5035536;28;20237;-70
2023/08/13 03:53:33;;;;;;;5.50;4.70;;;;;;;18.55;85.27;101207.53;5027540;28;20195;-70
2023/08/13 03:55:59;;;;;;;5.30;4.80;;;;;;;18.56;85.68;101207.19;5028560;28;20640;-70
2023/08/13 03:58:28;;;;;;;8.47;5.40;;;;;;;18.57;85.57;101206.03;5031620;28;20564;-71
2023/08/13 04:00:55;;;;;;;6.20;5.10;;;;;;;18.59;85.75;101211.81;5028411;28;20299;-71
2023/08/13 04:03:21;;;;;;;5.53;4.50;;;;;;;18.60;85.97;101209.91;5031999;28;20223;-71
2023/08/13 04:05:48;;;;;;;7.43;5.37;;;;;;;18.62;85.71;101207.66;5033134;28;20207;-71
2023/08/13 04:08:14;;;;;;;5.43;4.50;;;;;;;18.63;85.87;101209.94;5031026;28;20203;-71
2023/08/13 04:10:41;;;;;;;9.00;5.30;;;;;;;18.65;85.95;101221.06;5029002;28;20652;-71
2023/08/13 04:13:08;;;;;;;10.17;5.93;;;;;;;18.66;85.96;101219.91;5026887;28;20202;-71
2023/08/13 04:15:36;;;;;;;6.20;5.30;;;;;;;18.70;86.07;101217.28;5032325;28;20210;-71
2023/08/13 04:18:02;;;;;;;7.07;5.70;;;;;;;18.72;86.37;101231.06;5046717;28;20220;-71
2023/08/13 04:20:29;;;;;;;6.83;5.03;;;;;;;18.74;86.47;101232.25;5029127;28;20646;-71
2023/08/13 04:22:55;;;;;;;7.07;5.30;;;;;;;18.77;86.49;101241.44;5028660;28;20492;-71
2023/08/13 04:25:21;;;;;;;8.17;5.47;;;;;;;18.78;86.77;101238.41;5029187;28;20210;-72
2023/08/13 04:27:48;;;;;;;7.63;5.30;;;;;;;18.80;86.46;101240.72;5029529;28;20292;-71
2023/08/13 04:30:14;;;;;;;6.80;5.30;;;;;;;18.82;86.51;101243.78;5030881;28;20215;-71
2023/08/13 04:32:53;;;;;;;8.40;5.27;;;;;;;18.84;86.57;101246.91;5028011;28;20208;-71
2023/08/13 04:35:19;;;;;;;7.70;5.27;;;;;;;18.86;86.68;101245.41;5036804;28;20207;-72
2023/08/13 04:37:45;;;;;;;7.30;6.57;;;;;;;18.90;87.09;101245.44;5032528;28;20553;-71
2023/08/13 04:40:13;;;;;;;6.90;6.03;;;;;;;18.94;86.83;101244.34;5032143;28;20231;-71
2023/08/13 04:42:41;;;;;;;8.37;6.57;;;;;;;18.99;86.77;101235.22;5032418;28;20305;-71
2023/08/13 04:45:09;;;;;;;9.50;6.27;;;;;;;19.03;87.19;101236.78;5031564;28;20199;-71
2023/08/13 04:47:35;;;;;;;9.00;6.43;;;;;;;19.06;86.86;101235.28;5032118;28;20423;-71
2023/08/13 04:50:04;;;;;;;6.90;6.20;;;;;;;19.10;86.81;101238.78;5049842;28;20255;-71
2023/08/13 04:52:31;;;;;;;7.67;6.40;;;;;;;19.12;86.80;101248.00;5032844;28;20200;-71
2023/08/13 04:54:59;;;;;;;6.07;5.47;;;;;;;19.14;86.63;101242.28;5050593;28;20200;-71
2023/08/13 04:57:26;;;;;;;7.17;5.70;;;;;;;19.16;86.83;101246.13;5031833;28;20227;-71
2023/08/13 04:59:52;;;;;;;7.03;5.93;;;;;;;19.17;86.54;101247.66;5030722;28;20215;-71
2023/08/13 05:02:20;;;;;;;6.87;5.93;;;;;;;19.20;86.77;101246.16;5034887;28;20230;-71
2023/08/13 05:04:48;;;;;;;8.53;5.67;;;;;;;19.23;87.01;101256.94;5030406;28;20222;-71
2023/08/13 05:07:16;;;;;;;8.47;6.67;;;;;;;19.30;87.62;101248.97;5031043;28;20246;-72
2023/08/13 05:09:42;;;;;;;10.97;7.13;;;;;;;19.38;88.47;101255.16;5033102;28;20242;-71
2023/08/13 05:12:09;;;;;;;11.30;7.80;;;;;;;19.47;89.09;101263.69;5032412;28;20203;-71
2023/08/13 05:14:35;;;;;;;8.03;7.20;;;;;;;19.55;88.79;101265.31;5032780;28;20207;-71
2023/08/13 05:17:02;;;;;;;7.63;6.53;;;;;;;19.63;88.48;101262.31;5030526;28;20210;-71
2023/08/13 05:19:29;;;;;;;7.17;6.30;;;;;;;19.70;88.57;101265.03;5049203;28;20314;-71
2023/08/13 05:21:56;;;;;;;7.67;5.93;;;;;;;19.78;88.67;101272.00;5030888;28;20200;-71
2023/08/13 05:24:24;;;;;;;6.03;5.43;;;;;;;19.83;88.46;101269.00;5046108;28;20215;-71
2023/08/13 05:26:50;;;;;;;5.80;5.13;;;;;;;19.88;88.35;101265.94;5033867;28;20207;-71
2023/08/13 05:29:17;;;;;;;8.43;5.50;;;;;;;19.93;87.82;101264.84;5033359;28;20228;-71
2023/08/13 05:31:44;;;;;;;6.00;5.40;;;;;;;19.98;87.61;101267.94;5036395;28;20624;-71
2023/08/13 05:34:11;;;;;;;6.07;5.47;;;;;;;20.02;87.66;101274.09;5028423;28;20253;-71
2023/08/13 05:36:37;;;;;;;7.43;5.23;;;;;;;20.05;87.69;101276.06;5031779;28;20216;-71
2023/08/13 05:39:07;;;;;;;5.43;4.87;;;;;;;20.09;87.20;101284.94;5027831;28;20207;-71
2023/08/13 05:41:35;;;;;;;4.87;4.47;;;;;;;20.12;86.92;101284.19;5030489;28;20207;-71
2023/08/13 05:44:02;;;;;;;4.97;4.47;;;;;;;20.16;86.59;101279.63;5046341;28;20603;-71
2023/08/13 05:46:29;;;;;;;5.97;4.87;;;;;;;20.18;86.72;101277.31;5032872;28;20210;-71
2023/08/13 05:48:56;;;;;;;7.30;4.30;;;;;;;20.21;85.85;101273.91;5035032;28;20654;-71
2023/08/13 05:51:23;;;;;;;4.83;4.40;;;;;;;20.25;86.35;101274.69;5037207;28;20673;-71
2023/08/13 05:53:49;;;;;;;5.50;4.80;;;;;;;20.29;86.22;101280.09;5027512;28;20227;-71
2023/08/13 05:56:15;;;;;;;5.60;4.40;;;;;;;20.34;86.07;101280.50;5032778;28;20214;-71
2023/08/13 05:58:43;;;;;;;5.20;4.70;;;;;;;20.39;86.42;101282.06;5033830;28;20212;-71
2023/08/13 06:01:10;;;;;;;5.87;4.47;;;;;;;20.42;86.20;101290.13;5030744;28;20215;-72
2023/08/13 06:03:37;;;;;;;6.27;4.37;;;;;;;20.46;86.05;101298.19;5036036;28;21633;-71
2023/08/13 06:06:03;;;;;;;5.13;4.63;;;;;;;20.48;85.82;101296.69;5032134;28;20199;-71
2023/08/13 06:08:30;;;;;;;6.43;4.33;;;;;;;20.51;85.49;101295.16;5028459;28;20211;-71
2023/08/13 06:10:56;;;;;;;4.73;4.30;;;;;;;20.53;85.47;101300.91;5032327;28;20638;-71
2023/08/13 06:13:23;;;;;;;4.93;4.43;;;;;;;20.54;85.56;101295.19;5029797;28;20318;-71
2023/08/13 06:15:50;;;;;;;6.40;4.30;;;;;;;20.57;85.09;101302.50;5027898;28;20695;-71
2023/08/13 06:18:17;;;;;;;4.40;4.00;;;;;;;20.58;85.08;101305.94;5027539;28;20200;-71
2023/08/13 06:20:44;;;;;;;6.57;4.57;;;;;;;20.61;85.19;101307.88;5028539;28;20215;-71
2023/08/13 06:23:11;;;;;;;4.70;4.30;;;;;;;20.65;84.99;101322.84;5029698;28;20281;-72
2023/08/13 06:25:39;;;;;;;4.90;4.30;;;;;;;20.70;84.88;101314.44;5030649;28;20578;-71
2023/08/13 06:28:06;;;;;;;5.00;4.50;;;;;;;20.75;85.03;101316.75;5029608;28;20227;-72
2023/08/13 06:30:33;;;;;;;6.43;4.30;;;;;;;20.85;84.69;101324.09;5032080;28;20590;-71
2023/08/13 06:33:00;;;;;;;4.77;4.37;;;;;;;20.92;83.91;101318.03;5025846;28;20208;-71
2023/08/13 06:35:27;;;;;;;6.57;4.20;;;;;;;20.98;83.90;101313.84;5031908;28;20220;-71
2023/08/13 06:37:53;;;;;;;4.33;3.93;;;;;;;21.01;82.79;101319.22;5028522;28;20234;-71
2023/08/13 06:40:19;;;;;;;7.67;4.40;;;;;;;21.07;82.97;101314.25;5028981;28;20231;-71
2023/08/13 06:42:46;;;;;;;4.33;3.93;;;;;;;21.12;82.90;101311.22;5028951;28;20226;-71
2023/08/13 06:45:12;;;;;;;4.90;4.40;;;;;;;21.15;82.29;101305.06;5027892;28;20670;-71
2023/08/13 06:47:39;;;;;;;4.27;3.87;;;;;;;21.18;81.85;101309.69;5028874;28;20278;-71
2023/08/13 06:50:07;;;;;;;5.50;4.40;;;;;;;21.22;82.04;101307.81;5028568;28;20915;-71
2023/08/13 06:52:34;;;;;;;5.20;4.68;;;;;;;21.27;81.67;101313.56;5027996;28;20203;-71
2023/08/13 06:55:00;;;;;;;5.05;4.00;;;;;;;21.36;81.24;101311.28;5029732;28;20203;-71
2023/08/13 06:57:26;;;;;;;5.22;4.72;;;;;;;21.46;81.50;101307.84;5029537;28;20238;-71
2023/08/13 06:59:53;;;;;;;4.47;4.07;;;;;;;21.58;81.13;101317.50;5028553;28;20234;-71
2023/08/13 07:02:19;;;;;;;6.82;4.13;;;;;;;21.67;80.40;101326.72;5028918;28;20457;-71
2023/08/13 07:04:44;;;;;;;4.32;3.58;;;;;;;21.73;79.22;101327.91;5032046;28;21160;-71
2023/08/13 07:07:12;;;;;;;3.88;3.47;;;;;;;21.80;78.26;101321.78;5029810;28;20230;-71
2023/08/13 07:09:38;;;;;;;3.95;3.35;;;;;;;21.86;78.20;101326.41;5030559;28;20315;-71
2023/08/13 07:12:05;;;;;;;3.72;3.40;;;;;;;21.95;78.14;101329.47;5029052;28;20192;-71
2023/08/13 07:14:32;;;;;;;3.88;3.42;;;;;;;22.05;78.34;101331.38;5030401;28;20218;-71
2023/08/13 07:16:59;;;;;;;3.90;3.50;;;;;;;22.11;77.07;101337.16;5025947;28;20334;-71
2023/08/13 07:19:25;;;;;;;3.92;3.50;;;;;;;22.15;76.06;101337.94;5029797;28;20233;-71
2023/08/13 07:21:52;;;;;;;5.22;3.33;;;;;;;22.15;75.41;101337.94;5025794;28;20620;-71
2023/08/13 07:24:19;;;;;;;3.95;3.40;;;;;;;22.15;75.18;101338.69;5028216;28;20788;-70
2023/08/13 07:26:46;;;;;;;3.38;3.08;;;;;;;22.16;74.91;101342.16;5034750;28;20199;-71
2023/08/13 07:29:12;;;;;;;3.50;3.20;;;;;;;22.19;75.31;101338.69;5024659;28;20223;-71
2023/08/13 07:31:38;;;;;;;3.38;3.08;;;;;;;22.18;76.11;101335.22;5024243;28;20567;-71
2023/08/13 07:34:05;;;;;;;3.70;3.40;;;;;;;22.21;76.21;101336.38;5024034;28;20706;-71
2023/08/13 07:36:32;;;;;;;3.50;3.20;;;;;;;22.20;76.53;101330.22;5030546;28;20229;-71
2023/08/13 07:38:59;;;;;;;3.45;3.15;;;;;;;22.23;76.31;101326.00;5024404;28;20204;-71
2023/08/13 07:41:26;;;;;;;5.22;3.60;;;;;;;22.28;75.89;101328.28;5033036;28;20729;-71
2023/08/13 07:43:53;;;;;;;3.33;3.03;;;;;;;22.32;75.83;101337.91;5029387;28;20677;-71
2023/08/13 07:46:19;;;;;;;4.18;3.10;;;;;;;22.39;75.34;101337.91;5025096;28;20202;-71
2023/08/13 07:48:46;;;;;;;3.42;3.13;;;;;;;22.42;74.76;101337.16;5032684;28;20206;-71
2023/08/13 07:51:12;;;;;;;3.45;3.15;;;;;;;22.46;73.61;101332.53;5026944;28;20235;-71
2023/08/13 07:53:39;;;;;;;3.28;2.95;;;;;;;22.52;74.46;101339.09;5024774;28;20214;-71
2023/08/13 07:56:05;;;;;;;3.25;2.95;;;;;;;22.52;73.45;101341.78;5024409;28;21197;-71
2023/08/13 07:58:33;;;;;;;3.33;3.03;;;;;;;22.58;73.28;101338.69;5028124;28;20211;-71
2023/08/13 08:00:59;;;;;;;3.95;3.22;;;;;;;22.63;73.09;101345.22;5024818;28;20632;-71
2023/08/13 08:03:26;;;;;;;3.70;3.38;;;;;;;22.64;73.30;101335.97;5022135;28;20242;-71
2023/08/13 08:05:52;;;;;;;3.13;2.83;;;;;;;22.67;73.21;101343.25;5026425;28;20210;-71
2023/08/13 08:08:19;;;;;;;3.72;3.33;;;;;;;22.70;73.64;101337.09;5022265;28;20203;-71
2023/08/13 08:10:45;;;;;;;3.78;3.00;;;;;;;22.70;72.76;101337.09;5027791;28;20270;-71
2023/08/13 08:13:12;;;;;;;5.75;3.17;;;;;;;22.77;73.23;101337.06;5025863;28;20547;-71
2023/08/13 08:15:39;;;;;;;3.13;2.90;;;;;;;22.86;74.14;101336.69;5028383;28;20233;-71
2023/08/13 08:18:07;;;;;;;3.33;3.03;;;;;;;22.94;72.40;101338.19;5028104;28;20292;-71
2023/08/13 08:20:33;;;;;;;3.75;2.92;;;;;;;22.98;71.11;101350.47;5027119;28;20589;-72
2023/08/13 08:23:00;;;;;;;3.60;2.92;;;;;;;23.03;71.33;101344.69;5022918;28;20227;-71
2023/08/13 08:25:26;;;;;;;3.40;3.10;;;;;;;23.13;70.96;101343.13;5030546;28;20218;-71
2023/08/13 08:27:52;;;;;;;3.92;2.80;;;;;;;23.16;69.45;101347.72;5030182;28;20219;-71
2023/08/13 08:30:19;;;;;;;2.75;2.55;;;;;;;23.23;71.01;101340.41;5021802;28;20611;-71
2023/08/13 08:32:46;;;;;;;3.05;2.72;;;;;;;23.29;71.84;101338.84;5027600;28;20208;-71
2023/08/13 08:35:14;;;;;;;2.80;2.60;;;;;;;23.33;70.82;101338.06;5026543;28;20218;-71
2023/08/13 08:37:40;;;;;;;2.83;2.63;;;;;;;23.42;71.11;101331.06;5026617;28;20203;-71
2023/08/13 08:40:08;;;;;;;3.83;3.45;;;;;;;23.60;70.86;101334.44;5025873;28;20230;-71
2023/08/13 08:42:36;;;;;;;3.10;2.90;;;;;;;23.76;70.35;101342.81;5027268;28;20588;-71
2023/08/13 08:45:03;;;;;;;3.25;2.72;;;;;;;23.91;68.90;101338.09;5026166;28;20224;-71
2023/08/13 08:47:31;;;;;;;3.08;2.70;;;;;;;24.04;69.68;101334.53;5026410;28;20204;-71
2023/08/13 08:50:03;;;;;;;2.35;2.15;;;;;;;24.14;68.63;101333.66;5026131;28;20663;-71
2023/08/13 08:52:32;;;;;;;1.80;1.70;;;;;;;24.22;66.60;101332.44;5026229;28;20700;-71
2023/08/13 08:55:00;;;;;;;2.97;2.03;;;;;;;24.27;66.48;101329.31;5027671;28;20211;-71
2023/08/13 08:57:26;;;;;;;2.60;2.10;;;;;;;24.33;66.11;101326.94;5024219;28;20716;-71
2023/08/13 08:59:53;;;;;;;2.13;1.85;;;;;;;24.38;67.71;101329.22;5025802;28;20297;-72
2023/08/13 09:02:19;;;;;;;3.67;2.53;;;;;;;24.39;65.85;101330.78;5024254;28;20210;-72
2023/08/13 09:04:45;;;;;;;2.42;2.22;;;;;;;24.41;64.98;101326.47;5025384;28;20230;-71
2023/08/13 09:07:13;;;;;;;3.00;2.20;;;;;;;24.46;65.44;101330.69;5024369;28;20207;-72
2023/08/13 09:09:43;;;;;;;2.50;2.30;;;;;;;24.47;65.72;101329.50;5025895;28;20239;-72
2023/08/13 09:12:10;;;;;;;2.40;2.20;;;;;;;24.48;65.29;101332.56;5023717;28;20752;-71
2023/08/13 09:14:36;;;;;;;2.13;2.03;;;;;;;24.57;65.99;101328.66;5027800;28;20194;-71
2023/08/13 09:17:02;;;;;;;2.10;2.00;;;;;;;24.60;66.88;101333.28;5025756;28;20215;-72
2023/08/13 09:19:29;;;;;;;2.30;2.10;;;;;;;24.67;65.76;101330.50;5028702;28;20229;-71
2023/08/13 09:21:57;;;;;;;3.40;2.17;;;;;;;24.72;64.27;101320.00;5028744;28;20210;-71
2023/08/13 09:24:33;;;;;;;2.30;2.10;;;;;;;24.78;65.09;101318.41;5028004;28;20227;-71
2023/08/13 09:27:00;;;;;;;2.00;1.80;;;;;;;24.82;61.82;101312.97;5032281;28;20203;-71
2023/08/13 09:29:28;;;;;;;2.08;1.80;;;;;;;24.90;62.07;101317.88;5024856;28;20255;-71
2023/08/13 09:31:54;;;;;;;3.38;1.98;;;;;;;24.91;65.25;101316.69;5030279;28;20203;-71
2023/08/13 09:34:21;;;;;;;2.08;1.88;;;;;;;24.91;60.36;101321.34;5030920;28;20680;-70
2023/08/13 09:36:48;;;;;;;2.33;1.75;;;;;;;24.93;62.88;101327.88;5026259;28;20602;-71
2023/08/13 09:39:14;;;;;;;1.80;1.70;;;;;;;24.95;62.04;101316.66;5028052;28;20771;-71
2023/08/13 09:41:43;;;;;;;1.73;1.63;;;;;;;24.97;60.28;101323.19;5026769;28;20207;-71
2023/08/13 09:44:10;;;;;;;1.55;1.45;;;;;;;25.00;60.34;101316.97;5030228;28;20226;-71
2023/08/13 09:46:40;;;;;;;2.75;1.80;;;;;;;25.07;58.55;101316.88;5030537;28;20219;-71
2023/08/13 09:49:09;;;;;;;1.90;1.80;;;;;;;25.20;58.61;101311.69;5026438;28;20696;-71
2023/08/13 09:51:39;;;;;;;2.33;1.80;;;;;;;25.32;58.45;101313.88;5028076;28;20736;-71
2023/08/13 09:54:10;;;;;;;2.50;2.00;;;;;;;25.40;59.80;101318.81;5031113;28;20211;-71
2023/08/13 09:56:41;;;;;;;3.22;1.90;;;;;;;25.54;58.07;101325.94;5026494;28;20648;-71
2023/08/13 09:59:09;;;;;;;2.35;1.98;;;;;;;25.67;59.85;101324.19;5024290;28;20651;-71
2023/08/13 10:01:36;;;;;;;2.28;2.03;;;;;;;25.75;58.33;101315.56;5031449;28;20200;-71
2023/08/13 10:04:03;;;;;;;2.28;2.08;;;;;;;25.76;57.60;101317.13;5024616;28;20223;-71
2023/08/13 10:06:30;;;;;;;2.17;1.98;;;;;;;25.82;59.52;101320.09;5027185;28;20574;-71
2023/08/13 10:08:57;;;;;;;1.95;1.85;;;;;;;25.80;60.21;101306.22;5028086;28;20219;-71
2023/08/13 10:11:23;;;;;;;2.63;2.10;;;;;;;25.75;59.01;101314.81;5027718;28;20724;-71
2023/08/13 10:13:51;;;;;;;2.15;1.90;;;;;;;25.73;60.05;101315.22;5030307;28;20214;-71
2023/08/13 10:16:19;;;;;;;2.30;2.10;;;;;;;25.71;60.93;101319.50;5024892;28;20265;-71
2023/08/13 10:18:47;;;;;;;1.80;1.70;;;;;;;25.73;60.92;101315.22;5032389;28;20203;-71
2023/08/13 10:21:14;;;;;;;1.88;1.77;;;;;;;25.75;60.63;101309.41;5026728;28;21151;-71
2023/08/13 10:23:41;;;;;;;4.85;2.30;;;;;;;25.77;58.71;101315.94;5031500;28;20213;-71
2023/08/13 10:26:09;;;;;;;2.20;2.00;;;;;;;25.81;57.50;101313.94;5027223;28;20296;-71
2023/08/13 10:28:36;;;;;;;2.20;2.00;;;;;;;25.83;58.55;101305.38;5030203;28;20196;-71
2023/08/13 10:31:25;;;;;;;2.05;1.95;;;;;;;25.86;61.05;101305.34;5023048;28;20246;-71
2023/08/13 10:34:00;;;;;;;2.30;2.10;;;;;;;25.86;59.10;101312.69;5027053;28;20195;-72
2023/08/13 10:36:42;;;;;;;2.78;2.15;;;;;;;25.86;60.00;101307.28;5021348;28;20455;-71
2023/08/13 10:39:34;;;;;;;2.60;2.40;;;;;;;25.92;58.31;101305.66;5025759;28;20213;-71
2023/08/13 10:42:01;;;;;;;2.85;2.35;;;;;;;25.95;60.26;101308.31;5029361;28;20605;-71
2023/08/13 10:44:29;;;;;;;3.58;2.55;;;;;;;25.98;61.21;101306.72;5024307;28;20238;-71
2023/08/13 10:46:57;;;;;;;2.28;2.10;;;;;;;25.96;57.03;101300.97;5026016;28;20207;-71
2023/08/13 10:49:24;;;;;;;4.57;3.25;;;;;;;25.94;58.48;101304.06;5025423;28;20231;-71
2023/08/13 10:51:51;;;;;;;2.58;2.38;;;;;;;25.97;56.80;101300.56;5027916;28;20306;-71
2023/08/13 10:54:18;;;;;;;2.50;2.30;;;;;;;26.02;58.76;101308.22;5023466;28;20211;-71
2023/08/13 10:56:53;;;;;;;4.22;2.20;;;;;;;26.09;57.56;101304.59;5031270;28;20211;-71
2023/08/13 10:59:19;;;;;;;2.60;2.40;;;;;;;26.17;59.64;101303.31;5025381;28;20587;-72
2023/08/13 11:02:11;;;;;;;3.90;3.00;;;;;;;26.28;59.23;101298.47;5023937;28;20204;-71
2023/08/13 11:04:40;;;;;;;2.55;2.20;;;;;;;26.32;56.79;101299.91;5027632;28;20235;-71
2023/08/13 11:07:07;;;;;;;2.83;2.13;;;;;;;26.34;57.29;101303.00;5028416;28;20288;-70
2023/08/13 11:09:34;;;;;;;2.40;2.28;;;;;;;26.42;57.30;101295.50;5029264;28;20224;-71
2023/08/13 11:12:00;;;;;;;2.20;2.00;;;;;;;26.51;55.47;101295.72;5030152;28;20219;-71
2023/08/13 11:14:29;;;;;;;2.78;2.25;;;;;;;26.61;57.07;101287.41;5025808;28;20215;-71
2023/08/13 11:16:55;;;;;;;1.88;1.75;;;;;;;26.71;57.09;101304.63;5029211;28;20215;-71
2023/08/13 11:19:23;;;;;;;2.20;2.00;;;;;;;26.84;54.82;101300.88;4980758;28;20798;-71
2023/08/13 11:21:49;;;;;;;2.55;2.00;;;;;;;27.00;56.76;101297.47;4981361;28;21339;-71
2023/08/13 11:24:16;;;;;;;2.20;2.00;;;;;;;27.14;55.02;101295.22;4980247;28;20227;-71